createdAt,value
2022-08-17T00:02:26.921Z,18.13
2022-08-17T00:04:55.433Z,18.12
2022-08-17T00:07:22.760Z,18.08
2022-08-17T00:09:49.469Z,18.05
2022-08-17T00:12:41.141Z,18.03
2022-08-17T00:15:05.091Z,17.99
2022-08-17T00:17:31.827Z,17.95
2022-08-17T00:19:59.936Z,17.97
2022-08-17T00:22:32.676Z,17.94
2022-08-17T00:25:09.755Z,17.91
2022-08-17T00:27:36.990Z,17.89
2022-08-17T00:30:07.244Z,17.88
2022-08-17T00:33:11.959Z,17.86
2022-08-17T00:35:34.863Z,17.63
2022-08-17T00:38:01.894Z,17.51
2022-08-17T00:40:39.775Z,17.35
2022-08-17T00:43:22.819Z,17.33
2022-08-17T00:45:49.912Z,17.29
2022-08-17T00:48:29.122Z,17.24
2022-08-17T00:50:59.404Z,17.19
2022-08-17T00:53:31.129Z,17.10
2022-08-17T00:56:01.700Z,17.07
2022-08-17T00:58:35.933Z,17.10
2022-08-17T01:01:04.690Z,17.20
2022-08-17T01:03:31.712Z,17.23
2022-08-17T01:06:00.938Z,17.24
2022-08-17T01:08:30.314Z,17.19
2022-08-17T01:11:01.965Z,17.16
2022-08-17T01:13:40.657Z,17.12
2022-08-17T01:16:16.035Z,17.07
2022-08-17T01:18:45.859Z,17.01
2022-08-17T01:21:40.352Z,16.98
2022-08-17T01:24:07.628Z,16.99
2022-08-17T01:26:35.687Z,16.98
2022-08-17T01:29:06.181Z,17.00
2022-08-17T01:31:42.000Z,16.99
2022-08-17T01:34:11.794Z,17.01
2022-08-17T01:36:42.692Z,16.98
2022-08-17T01:39:29.127Z,16.97
2022-08-17T01:42:05.794Z,16.95
2022-08-17T01:44:33.628Z,16.93
2022-08-17T01:47:00.269Z,16.88
2022-08-17T01:49:27.890Z,16.84
2022-08-17T01:51:55.173Z,16.79
2022-08-17T01:54:23.465Z,16.78
2022-08-17T01:56:51.835Z,16.78
2022-08-17T01:59:20.079Z,16.76
2022-08-17T02:01:48.070Z,16.76
2022-08-17T02:04:15.118Z,16.73
2022-08-17T02:06:52.642Z,16.78
2022-08-17T02:09:25.945Z,16.76
2022-08-17T02:11:56.329Z,16.74
2022-08-17T02:14:23.995Z,16.72
2022-08-17T02:16:50.708Z,16.73
2022-08-17T02:19:18.502Z,16.71
2022-08-17T02:21:48.179Z,16.71
2022-08-17T02:24:58.366Z,16.71
2022-08-17T02:27:09.456Z,16.71
2022-08-17T02:29:36.152Z,16.70
2022-08-17T02:32:04.926Z,16.68
2022-08-17T02:34:32.418Z,16.69
2022-08-17T02:36:59.080Z,16.67
2022-08-17T02:39:25.828Z,16.66
2022-08-17T02:42:00.934Z,16.65
2022-08-17T02:44:39.256Z,16.61
2022-08-17T02:47:09.160Z,16.61
2022-08-17T02:49:36.351Z,16.59
2022-08-17T02:52:06.672Z,16.52
2022-08-17T02:54:40.538Z,16.46
2022-08-17T02:57:09.394Z,16.44
2022-08-17T02:59:36.175Z,16.50
2022-08-17T03:02:04.613Z,16.50
2022-08-17T03:04:32.186Z,16.55
2022-08-17T03:07:03.353Z,16.57
2022-08-17T03:09:30.140Z,16.53
2022-08-17T03:12:08.493Z,16.53
2022-08-17T03:14:41.778Z,16.46
2022-08-17T03:17:10.068Z,16.49
2022-08-17T03:19:37.453Z,16.54
2022-08-17T03:22:36.021Z,16.55
2022-08-17T03:24:56.901Z,16.61
2022-08-17T03:27:23.590Z,16.61
2022-08-17T03:29:50.292Z,16.65
2022-08-17T03:32:17.043Z,16.67
2022-08-17T03:34:43.810Z,16.68
2022-08-17T03:37:10.529Z,16.69
2022-08-17T03:39:37.351Z,16.67
2022-08-17T03:42:09.157Z,16.67
2022-08-17T03:44:57.881Z,16.73
2022-08-17T03:47:43.628Z,16.72
2022-08-17T03:50:30.883Z,16.69
2022-08-17T03:53:36.029Z,16.68
2022-08-17T03:56:23.247Z,16.71
2022-08-17T03:58:50.717Z,16.72
2022-08-17T04:01:17.983Z,16.72
2022-08-17T04:03:44.755Z,16.69
2022-08-17T04:06:11.444Z,16.70
2022-08-17T04:08:38.104Z,16.69
2022-08-17T04:11:04.941Z,16.66
2022-08-17T04:13:31.945Z,16.71
2022-08-17T04:15:59.920Z,16.75
2022-08-17T04:18:26.706Z,16.78
2022-08-17T04:20:53.525Z,16.81
2022-08-17T04:23:20.265Z,16.86
2022-08-17T04:25:50.558Z,16.84
2022-08-17T04:28:18.981Z,16.88
2022-08-17T04:30:47.464Z,16.90
2022-08-17T04:33:18.935Z,16.89
2022-08-17T04:35:51.202Z,16.90
2022-08-17T04:38:20.913Z,16.87
2022-08-17T04:41:06.143Z,16.89
2022-08-17T04:43:35.406Z,16.91
2022-08-17T04:46:05.342Z,16.91
2022-08-17T04:48:37.261Z,16.88
2022-08-17T04:51:09.536Z,16.80
2022-08-17T04:53:36.489Z,16.73
2022-08-17T04:56:03.327Z,16.69
2022-08-17T04:58:30.018Z,16.70
2022-08-17T05:00:56.872Z,16.73
2022-08-17T05:03:24.257Z,16.71
2022-08-17T05:05:51.208Z,16.72
2022-08-17T05:08:19.914Z,16.76
2022-08-17T05:10:47.974Z,16.88
2022-08-17T05:13:17.520Z,16.99
2022-08-17T05:15:47.658Z,17.07
2022-08-17T05:18:16.669Z,17.21
2022-08-17T05:20:43.498Z,17.32
2022-08-17T05:23:14.905Z,17.50
2022-08-17T05:25:47.644Z,17.64
2022-08-17T05:28:16.804Z,17.75
2022-08-17T05:30:45.899Z,17.91
2022-08-17T05:33:26.923Z,18.07
2022-08-17T05:35:56.897Z,18.20
2022-08-17T05:38:26.168Z,18.27
2022-08-17T05:40:54.075Z,18.33
2022-08-17T05:43:31.037Z,18.47
2022-08-17T05:46:27.020Z,18.72
2022-08-17T05:48:57.655Z,18.93
2022-08-17T05:51:51.561Z,19.17
2022-08-17T05:54:33.492Z,19.44
2022-08-17T05:57:23.851Z,19.66
2022-08-17T06:00:12.161Z,19.87
2022-08-17T06:03:04.487Z,20.09
2022-08-17T06:06:08.381Z,20.21
2022-08-17T06:08:51.641Z,20.40
2022-08-17T06:11:37.314Z,20.56
2022-08-17T06:14:15.933Z,20.78
2022-08-17T06:16:46.513Z,21.01
2022-08-17T06:19:55.309Z,21.21
2022-08-17T06:22:26.096Z,21.44
2022-08-17T06:25:18.859Z,21.62
2022-08-17T06:27:53.418Z,21.86
2022-08-17T06:30:57.517Z,22.09
2022-08-17T06:33:32.311Z,22.50
2022-08-17T06:36:26.535Z,22.81
2022-08-17T06:39:04.302Z,23.11
2022-08-17T06:41:54.598Z,23.33
2022-08-17T06:44:42.335Z,23.01
2022-08-17T06:47:28.363Z,22.71
2022-08-17T06:50:09.085Z,22.57
2022-08-17T06:52:48.764Z,22.46
2022-08-17T06:55:26.313Z,22.37
2022-08-17T06:58:01.447Z,22.52
2022-08-17T07:00:40.814Z,23.06
2022-08-17T07:03:37.733Z,23.69
2022-08-17T07:06:23.949Z,24.18
2022-08-17T07:09:09.196Z,24.53
2022-08-17T07:11:44.342Z,24.84
2022-08-17T07:14:45.791Z,25.09
2022-08-17T07:17:17.278Z,25.37
2022-08-17T07:19:47.505Z,25.65
2022-08-17T07:22:50.316Z,25.93
2022-08-17T07:25:23.597Z,26.20
2022-08-17T07:27:55.884Z,26.31
2022-08-17T07:30:47.459Z,26.43
2022-08-17T07:33:17.968Z,26.68
2022-08-17T07:35:48.447Z,26.83
2022-08-17T07:38:25.028Z,26.98
2022-08-17T07:41:02.996Z,27.05
2022-08-17T07:43:39.161Z,26.93
2022-08-17T07:46:30.657Z,27.08
2022-08-17T07:49:17.409Z,27.40
2022-08-17T07:51:44.174Z,27.70
2022-08-17T07:54:22.986Z,27.82
2022-08-17T07:56:52.927Z,27.77
2022-08-17T07:59:33.685Z,27.87
2022-08-17T08:02:08.088Z,27.91
2022-08-17T08:05:08.587Z,27.82
2022-08-17T08:07:42.681Z,27.63
2022-08-17T08:10:25.214Z,27.58
2022-08-17T08:13:05.740Z,27.65
2022-08-17T08:15:39.787Z,27.69
2022-08-17T08:18:55.015Z,27.91
2022-08-17T08:21:39.157Z,28.39
2022-08-17T08:24:21.043Z,28.83
2022-08-17T08:27:01.550Z,28.87
2022-08-17T08:29:49.931Z,28.87
2022-08-17T08:32:50.177Z,28.95
2022-08-17T08:35:23.451Z,29.03
2022-08-17T08:38:34.547Z,29.13
2022-08-17T08:41:16.474Z,28.85
2022-08-17T08:43:55.041Z,29.10
2022-08-17T08:46:49.803Z,29.39
2022-08-17T08:50:01.832Z,29.77
2022-08-17T08:52:34.091Z,29.88
2022-08-17T08:55:23.694Z,30.17
2022-08-17T08:58:04.909Z,30.50
2022-08-17T09:00:38.409Z,30.67
2022-08-17T09:03:20.228Z,30.47
2022-08-17T09:06:37.313Z,30.31
2022-08-17T09:09:28.297Z,30.64
2022-08-17T09:12:05.455Z,30.59
2022-08-17T09:14:46.596Z,30.59
2022-08-17T09:18:14.638Z,30.61
2022-08-17T09:20:51.231Z,30.98
2022-08-17T09:23:22.709Z,31.25
2022-08-17T09:25:58.570Z,31.20
2022-08-17T09:28:37.915Z,31.32
2022-08-17T09:31:16.723Z,31.39
2022-08-17T09:33:46.850Z,31.40
2022-08-17T09:36:25.983Z,30.87
2022-08-17T09:39:01.895Z,30.33
2022-08-17T09:41:37.710Z,29.72
2022-08-17T09:44:36.766Z,29.24
2022-08-17T09:47:15.671Z,28.62
2022-08-17T09:49:48.370Z,28.48
2022-08-17T09:52:25.141Z,28.45
2022-08-17T09:54:54.593Z,28.54
2022-08-17T09:57:31.487Z,28.72
2022-08-17T10:00:16.572Z,28.77
2022-08-17T10:03:22.440Z,28.70
2022-08-17T10:05:59.948Z,28.67
2022-08-17T10:08:42.095Z,28.65
2022-08-17T10:11:50.258Z,29.16
2022-08-17T10:14:38.085Z,29.23
2022-08-17T10:17:21.631Z,29.34
2022-08-17T10:20:04.131Z,29.88
2022-08-17T10:23:01.872Z,30.10
2022-08-17T10:25:55.063Z,30.67
2022-08-17T10:28:29.714Z,30.87
2022-08-17T10:31:30.821Z,31.12
2022-08-17T10:34:12.392Z,31.43
2022-08-17T10:37:08.727Z,31.90
2022-08-17T10:40:07.338Z,31.89
2022-08-17T10:42:43.848Z,31.69
2022-08-17T10:45:33.583Z,31.36
2022-08-17T10:48:06.554Z,31.65
2022-08-17T10:51:00.339Z,31.33
2022-08-17T10:53:48.670Z,30.71
2022-08-17T10:56:16.310Z,30.11
2022-08-17T10:58:57.914Z,30.44
2022-08-17T11:01:41.224Z,30.39
2022-08-17T11:04:42.040Z,29.87
2022-08-17T11:07:30.539Z,29.33
2022-08-17T11:10:00.015Z,29.29
2022-08-17T11:12:37.654Z,29.33
2022-08-17T11:15:16.541Z,29.49
2022-08-17T11:18:08.817Z,29.31
2022-08-17T11:21:06.494Z,29.13
2022-08-17T11:24:14.696Z,29.05
2022-08-17T11:26:48.815Z,28.97
2022-08-17T11:29:24.704Z,28.89
2022-08-17T11:32:00.027Z,29.15
2022-08-17T11:34:30.016Z,29.06
2022-08-17T11:37:11.224Z,28.89
2022-08-17T11:40:25.866Z,28.84
2022-08-17T11:43:05.427Z,29.72
2022-08-17T11:45:37.983Z,30.10
2022-08-17T11:48:31.971Z,30.69
2022-08-17T11:51:28.190Z,31.06
2022-08-17T11:54:14.751Z,31.22
2022-08-17T11:56:49.196Z,31.21
2022-08-17T11:59:37.102Z,31.27
2022-08-17T12:02:31.778Z,31.46
2022-08-17T12:05:14.571Z,31.42
2022-08-17T12:07:46.380Z,31.50
2022-08-17T12:10:17.280Z,30.89
2022-08-17T12:12:45.814Z,30.03
2022-08-17T12:15:24.611Z,29.69
2022-08-17T12:17:53.962Z,29.75
2022-08-17T12:20:27.838Z,29.53
2022-08-17T12:23:09.302Z,29.32
2022-08-17T12:25:35.966Z,29.08
2022-08-17T12:28:06.479Z,28.88
2022-08-17T12:30:35.648Z,29.07
2022-08-17T12:33:02.618Z,29.79
2022-08-17T12:35:36.225Z,29.98
2022-08-17T12:38:06.536Z,30.04
2022-08-17T12:40:57.941Z,30.24
2022-08-17T12:43:29.264Z,30.58
2022-08-17T12:45:59.497Z,30.21
2022-08-17T12:48:28.954Z,30.18
2022-08-17T12:51:02.434Z,30.47
2022-08-17T12:53:32.604Z,30.50
2022-08-17T12:56:01.531Z,30.49
2022-08-17T12:58:32.206Z,30.65
2022-08-17T13:01:04.367Z,30.85
2022-08-17T13:03:43.401Z,30.72
2022-08-17T13:06:25.231Z,30.35
2022-08-17T13:08:52.398Z,30.30
2022-08-17T13:11:24.166Z,30.75
2022-08-17T13:13:55.145Z,30.97
2022-08-17T13:16:28.535Z,31.27
2022-08-17T13:19:16.532Z,31.35
2022-08-17T13:21:49.039Z,31.56
2022-08-17T13:24:25.163Z,31.68
2022-08-17T13:27:00.963Z,31.76
2022-08-17T13:29:51.221Z,31.58
2022-08-17T13:32:43.033Z,31.27
2022-08-17T13:35:39.251Z,31.46
2022-08-17T13:38:14.022Z,31.58
2022-08-17T13:40:53.143Z,31.69
2022-08-17T13:43:48.560Z,31.71
2022-08-17T13:46:21.808Z,31.49
2022-08-17T13:49:03.619Z,31.42
2022-08-17T13:51:34.175Z,31.08
2022-08-17T13:54:03.987Z,30.61
2022-08-17T13:56:39.667Z,30.04
2022-08-17T13:59:13.059Z,29.68
2022-08-17T14:01:53.417Z,29.39
2022-08-17T14:04:24.898Z,29.12
2022-08-17T14:07:11.524Z,29.00
2022-08-17T14:10:00.848Z,28.98
2022-08-17T14:12:30.534Z,28.86
2022-08-17T14:14:58.909Z,28.87
2022-08-17T14:17:29.006Z,28.87
2022-08-17T14:19:55.822Z,29.22
2022-08-17T14:22:30.491Z,29.52
2022-08-17T14:24:58.765Z,29.52
2022-08-17T14:27:28.165Z,29.42
2022-08-17T14:29:56.439Z,29.41
2022-08-17T14:32:29.913Z,29.48
2022-08-17T14:34:57.742Z,29.70
2022-08-17T14:37:28.017Z,29.82
2022-08-17T14:39:57.255Z,29.87
2022-08-17T14:42:25.546Z,29.86
2022-08-17T14:44:53.934Z,29.84
2022-08-17T14:47:20.864Z,29.84
2022-08-17T14:49:51.098Z,29.79
2022-08-17T14:52:24.073Z,29.76
2022-08-17T14:54:52.664Z,29.71
2022-08-17T14:57:26.036Z,29.72
2022-08-17T15:00:02.112Z,29.74
2022-08-17T15:02:30.903Z,29.59
2022-08-17T15:05:03.820Z,29.29
2022-08-17T15:07:31.553Z,29.20
2022-08-17T15:10:02.050Z,29.24
2022-08-17T15:12:33.306Z,29.19
2022-08-17T15:15:05.292Z,29.03
2022-08-17T15:17:44.353Z,28.88
2022-08-17T15:20:23.970Z,28.72
2022-08-17T15:22:50.999Z,28.63
2022-08-17T15:25:19.335Z,28.51
2022-08-17T15:27:46.434Z,28.48
2022-08-17T15:30:13.632Z,28.48
2022-08-17T15:32:45.790Z,28.45
2022-08-17T15:35:27.572Z,28.49
2022-08-17T15:37:57.754Z,28.49
2022-08-17T15:40:25.166Z,28.57
2022-08-17T15:42:52.716Z,28.51
2022-08-17T15:45:24.920Z,28.40
2022-08-17T15:47:53.530Z,28.29
2022-08-17T15:50:20.247Z,28.25
2022-08-17T15:52:47.582Z,28.30
2022-08-17T15:55:15.223Z,28.30
2022-08-17T15:57:41.978Z,28.29
2022-08-17T16:00:10.145Z,28.29
2022-08-17T16:03:45.966Z,28.30
2022-08-17T16:05:28.504Z,28.30
2022-08-17T16:07:58.651Z,28.36
2022-08-17T16:10:35.739Z,28.33
2022-08-17T16:13:03.979Z,28.29
2022-08-17T16:15:31.840Z,28.27
2022-08-17T16:17:59.059Z,28.28
2022-08-17T16:20:25.819Z,28.27
2022-08-17T16:22:52.960Z,28.31
2022-08-17T16:25:52.461Z,28.35
2022-08-17T16:28:17.455Z,28.29
2022-08-17T16:30:44.374Z,28.21
2022-08-17T16:33:12.001Z,28.02
2022-08-17T16:35:38.988Z,27.89
2022-08-17T16:38:07.289Z,27.80
2022-08-17T16:40:35.710Z,27.68
2022-08-17T16:43:07.099Z,27.56
2022-08-17T16:45:36.779Z,27.45
2022-08-17T16:48:04.411Z,27.32
2022-08-17T16:50:32.178Z,27.20
2022-08-17T16:53:06.692Z,27.15
2022-08-17T16:55:35.701Z,27.01
2022-08-17T16:58:04.755Z,26.94
2022-08-17T17:00:33.179Z,26.88
2022-08-17T17:03:19.638Z,26.81
2022-08-17T17:05:57.922Z,26.78
2022-08-17T17:08:30.434Z,26.70
2022-08-17T17:10:59.593Z,26.68
2022-08-17T17:13:35.471Z,26.63
2022-08-17T17:16:28.667Z,26.60
2022-08-17T17:18:55.262Z,26.58
2022-08-17T17:21:31.244Z,26.56
2022-08-17T17:24:06.999Z,26.46
2022-08-17T17:26:39.729Z,26.40
2022-08-17T17:29:18.427Z,26.29
2022-08-17T17:32:04.569Z,26.23
2022-08-17T17:34:37.362Z,26.17
2022-08-17T17:37:13.250Z,26.12
2022-08-17T17:39:56.125Z,26.06
2022-08-17T17:42:28.343Z,25.99
2022-08-17T17:45:04.453Z,25.93
2022-08-17T17:47:33.464Z,25.84
2022-08-17T17:50:02.174Z,25.77
2022-08-17T17:52:50.773Z,25.71
2022-08-17T17:55:31.019Z,25.64
2022-08-17T17:58:10.096Z,25.55
2022-08-17T18:00:58.856Z,25.45
2022-08-17T18:03:31.746Z,25.38
2022-08-17T18:06:31.491Z,25.26
2022-08-17T18:09:08.923Z,25.15
2022-08-17T18:11:59.190Z,25.09
2022-08-17T18:14:40.843Z,25.02
2022-08-17T18:17:07.438Z,24.92
2022-08-17T18:19:34.087Z,24.81
2022-08-17T18:22:03.769Z,24.73
2022-08-17T18:24:40.088Z,24.67
2022-08-17T18:27:34.991Z,24.59
2022-08-17T18:30:21.576Z,24.46
2022-08-17T18:32:48.290Z,24.44
2022-08-17T18:35:14.899Z,24.41
2022-08-17T18:37:42.694Z,24.35
2022-08-17T18:40:18.504Z,24.31
2022-08-17T18:43:05.503Z,24.24
2022-08-17T18:45:34.058Z,24.19
2022-08-17T18:48:01.302Z,24.15
2022-08-17T18:50:36.799Z,24.12
2022-08-17T18:53:34.548Z,24.17
2022-08-17T18:56:22.903Z,24.14
2022-08-17T18:59:00.615Z,24.11
2022-08-17T19:01:47.003Z,24.08
2022-08-17T19:04:34.557Z,24.01
2022-08-17T19:07:04.991Z,23.94
2022-08-17T19:09:39.823Z,23.93
2022-08-17T19:12:13.498Z,23.89
2022-08-17T19:14:40.572Z,23.82
2022-08-17T19:17:21.926Z,23.74
2022-08-17T19:20:03.073Z,23.66
2022-08-17T19:22:40.482Z,23.56
2022-08-17T19:25:18.697Z,23.44
2022-08-17T19:28:02.937Z,23.43
2022-08-17T19:30:30.320Z,23.36
2022-08-17T19:32:58.467Z,23.27
2022-08-17T19:35:46.795Z,23.24
2022-08-17T19:38:38.405Z,23.17
2022-08-17T19:41:18.157Z,23.12
2022-08-17T19:44:06.990Z,23.09
2022-08-17T19:46:56.329Z,23.05
2022-08-17T19:49:46.849Z,23.03
2022-08-17T19:52:37.464Z,23.00
2022-08-17T19:55:23.127Z,22.97
2022-08-17T19:58:00.802Z,22.94
2022-08-17T20:00:28.538Z,22.86
2022-08-17T20:03:22.153Z,22.86
2022-08-17T20:08:58.337Z,22.71
2022-08-17T20:11:41.753Z,22.72
2022-08-17T20:14:13.795Z,22.69
2022-08-17T20:16:40.880Z,22.67
2022-08-17T20:19:16.868Z,22.73
2022-08-17T20:21:48.654Z,22.73
2022-08-17T20:24:27.522Z,22.73
2022-08-17T20:27:12.375Z,22.74
2022-08-17T20:29:57.844Z,22.74
2022-08-17T20:32:31.336Z,22.72
2022-08-17T20:35:32.909Z,22.70
2022-08-17T20:37:59.829Z,22.69
2022-08-17T20:40:37.145Z,22.72
2022-08-17T20:43:43.479Z,22.69
2022-08-17T20:46:31.870Z,22.68
2022-08-17T20:49:23.350Z,22.64
2022-08-17T20:52:01.185Z,22.66
2022-08-17T20:54:49.056Z,22.64
2022-08-17T20:57:37.234Z,22.66
2022-08-17T21:00:18.811Z,22.65
2022-08-17T21:02:49.572Z,22.65
2022-08-17T21:05:57.248Z,22.65
2022-08-17T21:08:55.241Z,22.65
2022-08-17T21:11:56.728Z,22.69
2022-08-17T21:14:49.730Z,22.67
2022-08-17T21:17:54.885Z,22.67
2022-08-17T21:20:32.196Z,22.51
2022-08-17T21:23:24.394Z,22.50
2022-08-17T21:26:14.080Z,22.44
2022-08-17T21:29:31.339Z,22.51
2022-08-17T21:32:05.274Z,22.51
2022-08-17T21:35:07.355Z,22.23
2022-08-17T21:37:45.159Z,21.99
2022-08-17T21:40:18.199Z,21.63
2022-08-17T21:42:55.152Z,21.23
2022-08-17T21:45:37.943Z,20.79
2022-08-17T21:48:20.021Z,20.48
2022-08-17T21:51:00.982Z,20.29
2022-08-17T21:53:53.234Z,20.13
2022-08-17T21:56:24.678Z,20.10
2022-08-17T21:59:07.688Z,20.05
2022-08-17T22:01:41.660Z,19.84
2022-08-17T22:04:11.720Z,19.66
2022-08-17T22:06:52.480Z,19.69
2022-08-17T22:09:31.880Z,19.64
2022-08-17T22:12:06.637Z,19.58
2022-08-17T22:14:53.044Z,19.41
2022-08-17T22:17:29.745Z,19.13
2022-08-17T22:20:04.493Z,19.03
2022-08-17T22:22:55.919Z,18.99
2022-08-17T22:25:24.310Z,18.83
2022-08-17T22:28:00.409Z,18.83
2022-08-17T22:30:27.781Z,18.91
2022-08-17T22:32:55.458Z,18.87
2022-08-17T22:35:25.282Z,18.74
2022-08-17T22:37:52.593Z,18.77
2022-08-17T22:40:34.567Z,18.71
2022-08-17T22:43:03.598Z,18.70
2022-08-17T22:45:31.305Z,18.65
2022-08-17T22:48:02.218Z,18.64
2022-08-17T22:50:33.121Z,18.57
2022-08-17T22:53:21.654Z,18.55
2022-08-17T22:56:15.159Z,18.55
2022-08-17T22:59:12.373Z,18.64
2022-08-17T23:01:40.668Z,18.68
2022-08-17T23:04:11.643Z,18.72
2022-08-17T23:06:42.363Z,18.73
2022-08-17T23:09:09.536Z,18.83
2022-08-17T23:11:48.810Z,18.92
2022-08-17T23:14:19.890Z,18.95
2022-08-17T23:16:50.277Z,18.93
2022-08-17T23:19:21.526Z,18.88
2022-08-17T23:21:53.824Z,18.93
2022-08-17T23:24:24.246Z,18.90
2022-08-17T23:26:51.176Z,18.86
2022-08-17T23:29:20.544Z,18.87
2022-08-17T23:31:49.300Z,18.89
2022-08-17T23:34:18.411Z,18.87
2022-08-17T23:36:51.282Z,18.83
2022-08-17T23:39:27.470Z,18.72
2022-08-17T23:41:59.103Z,18.74
2022-08-17T23:44:26.603Z,18.65
2022-08-17T23:46:54.520Z,18.63
2022-08-17T23:49:21.399Z,18.55
2022-08-17T23:51:48.981Z,18.50
2022-08-17T23:54:37.481Z,18.58
2022-08-17T23:57:09.254Z,18.61
2022-08-17T23:59:37.158Z,18.65
